Data for 03/06/2013

Time Sea-Level Adjusted Pressure Absolute Pressure Temperature Relative Humidity Dew Point   
(mb) (inHg) (mb) (inHg) (C) (F) (%) (C) (F)
00:05 1015 29.97 844 24.92 -1 30.2 51 -9.8 14.4
00:10 1015 29.97 844 24.92 -1.1 30.1 51 -9.9 14.2
00:15 1015 29.97 844 24.92 -1.1 30 52 -9.8 14.3
00:20 1015 29.97 844 24.92 -1.3 29.7 53 -9.7 14.5
00:25 1015 29.97 844 24.92 -1.1 30 51 -10 14.1
00:30 1015 29.97 844 24.92 -1.1 30.1 53 -9.5 14.8
00:35 1015 29.97 844 24.92 -1.2 29.8 53 -9.5 14.9
00:40 1015 29.97 844 24.92 -1.2 29.8 52 -9.7 14.5
00:45 1014 29.94 844 24.92 -1 30.1 53 -9.5 14.8
00:50 1014 29.94 844 24.92 -1.2 29.9 53 -9.7 14.6
00:55 1014 29.94 844 24.92 -1.2 29.9 53 -9.6 14.7
01:00 1015 29.97 844 24.92 -1.2 29.8 53 -9.6 14.7
01:05 1014 29.94 844 24.92 -1.3 29.7 53 -9.6 14.7
01:10 1014 29.94 844 24.92 -1.3 29.7 54 -9.5 14.8
01:15 1014 29.94 844 24.92 -1.3 29.6 53 -9.6 14.7
01:20 1014 29.94 844 24.92 -1.4 29.4 54 -9.6 14.6
01:25 1014 29.94 844 24.92 -1.5 29.3 53 -9.8 14.4
01:30 1014 29.94 844 24.92 -1.5 29.4 54 -9.6 14.7
01:35 1014 29.94 844 24.92 -1.5 29.3 54 -9.7 14.5
01:40 1014 29.94 843 24.89 -1.5 29.3 54 -9.8 14.4
01:45 1014 29.94 843 24.89 -1.5 29.4 54 -9.7 14.6
01:50 1014 29.94 844 24.92 -1.5 29.2 54 -9.7 14.5
01:55 1014 29.94 844 24.92 -1.6 29.1 54 -9.7 14.5
02:00 1014 29.94 843 24.89 -1.6 29.1 54 -9.7 14.5
02:05 1014 29.94 843 24.89 -1.6 29.1 53 -9.9 14.3
02:10 1014 29.94 843 24.89 -1.6 29.1 54 -9.8 14.3
02:15 1014 29.94 843 24.89 -1.7 28.9 55 -9.7 14.6
02:20 1014 29.94 843 24.89 -1.8 28.7 55 -9.7 14.6
02:25 1014 29.94 843 24.89 -1.9 28.6 55 -9.7 14.5
02:30 1014 29.94 843 24.89 -1.9 28.5 55 -9.8 14.4
02:35 1014 29.94 843 24.89 -2 28.4 55 -9.8 14.4
02:40 1014 29.94 843 24.89 -2.1 28.3 55 -10 14.1
02:45 1014 29.94 843 24.89 -2 28.4 55 -9.9 14.1
02:50 1014 29.94 843 24.89 -2 28.4 55 -9.9 14.2
02:55 1014 29.94 843 24.89 -1.9 28.5 55 -9.8 14.3
03:00 1014 29.94 843 24.89 -2 28.3 55 -10 14.1
03:05 1014 29.94 843 24.89 -2.1 28.2 55 -9.9 14.1
03:10 1014 29.94 843 24.89 -2.1 28.2 55 -10 14
03:15 1014 29.94 843 24.89 -2.1 28.2 55 -10.1 13.9
03:20 1014 29.94 843 24.89 -2.1 28.2 55 -10.1 13.9
03:25 1014 29.94 843 24.89 -2 28.4 54 -10 13.9
03:30 1014 29.94 843 24.89 -2 28.4 55 -10 14.1
03:35 1014 29.94 843 24.89 -2 28.4 54 -10.1 13.8
03:40 1014 29.94 843 24.89 -2 28.4 54 -10.1 13.9
03:45 1014 29.94 843 24.89 -2 28.4 54 -10.1 13.8
03:50 1013 29.91 843 24.89 -2.1 28.3 54 -10.1 13.9
03:55 1013 29.91 843 24.89 -2.2 28.1 55 -10.1 13.8
04:00 1013 29.91 843 24.89 -2.2 28 55 -10.1 13.9
04:05 1013 29.91 843 24.89 -2.3 27.8 55 -10.1 13.8
04:10 1013 29.91 842 24.86 -2.4 27.7 55 -10.2 13.7
04:15 1013 29.91 842 24.86 -2.3 27.8 55 -10.1 13.8
04:20 1013 29.91 842 24.86 -2.4 27.8 55 -10.2 13.6
04:25 1013 29.91 842 24.86 -2.3 27.8 55 -10.2 13.6
04:30 1013 29.91 842 24.86 -2.4 27.7 56 -10.1 13.8
04:35 1013 29.91 842 24.86 -2.5 27.4 56 -10.1 13.8
04:40 1013 29.91 842 24.86 -2.6 27.3 56 -10.2 13.7
04:45 1013 29.91 842 24.86 -2.7 27.2 57 -10.1 13.8
04:50 1013 29.91 842 24.86 -2.8 26.9 57 -10.2 13.7
04:55 1013 29.91 842 24.86 -2.9 26.8 57 -10.2 13.6
05:00 1013 29.91 842 24.86 -3 26.7 58 -10.2 13.7
05:05 1013 29.91 842 24.86 -3.1 26.4 58 -10.3 13.5
05:10 1013 29.91 842 24.86 -3.1 26.4 58 -10.3 13.5
05:15 1013 29.91 842 24.86 -3.1 26.4 58 -10.3 13.5
05:20 1013 29.91 842 24.86 -3 26.6 57 -10.3 13.5
05:25 1013 29.91 842 24.86 -2.9 26.8 56 -10.4 13.3
05:30 1013 29.91 842 24.86 -2.9 26.8 58 -10 13.9
05:35 1012 29.88 842 24.86 -3.3 26.1 59 -10.3 13.5
05:40 1012 29.88 842 24.86 -3.3 26.1 58 -10.4 13.4
05:45 1012 29.88 842 24.86 -3 26.6 57 -10.3 13.4
05:50 1012 29.88 841 24.83 -3 26.6 58 -10.2 13.7
05:55 1012 29.88 841 24.83 -3 26.7 58 -10.1 13.8
06:00 1012 29.88 841 24.83 -3 26.7 57 -10.3 13.4
06:05 1012 29.88 842 24.86 -2.8 26.9 57 -10.1 13.8
06:10 1012 29.88 841 24.83 -2.8 27 56 -10.4 13.2
06:15 1012 29.88 841 24.83 -2 28.3 53 -10.3 13.4
06:20 1012 29.88 841 24.83 -1.8 28.8 53 -10.3 13.5
06:25 1012 29.88 841 24.83 -1.7 28.9 52 -10.3 13.5
06:30 1012 29.88 841 24.83 -1.9 28.5 53 -10.2 13.7
06:35 1012 29.88 841 24.83 -2.3 27.9 54 -10.3 13.4
06:40 1012 29.88 841 24.83 -2.2 28 53 -10.4 13.2
06:45 1012 29.88 841 24.83 -2.2 28 53 -10.5 13.2
06:50 1012 29.88 841 24.83 -2.3 27.8 53 -10.6 13
06:55 1012 29.88 841 24.83 -2.2 28.1 53 -10.5 13
07:00 1012 29.88 841 24.83 -2.2 28.1 52 -10.7 12.8
07:05 1012 29.88 841 24.83 -2.1 28.2 53 -10.6 13
07:10 1012 29.88 841 24.83 -2.2 28.1 53 -10.4 13.3
07:15 1012 29.88 841 24.83 -2.4 27.6 55 -10.3 13.4
07:20 1012 29.88 841 24.83 -2.6 27.3 58 -9.9 14.2
07:25 1012 29.88 841 24.83 -2.4 27.6 53 -10.7 12.8
07:30 1012 29.88 841 24.83 -2.1 28.2 53 -10.4 13.4
07:35 1012 29.88 841 24.83 -2.3 27.9 54 -10.3 13.5
07:40 1011 29.85 841 24.83 -2.5 27.4 56 -10.2 13.7
07:45 1011 29.85 841 24.83 -2.8 27 56 -10.5 13.2
07:50 1011 29.85 841 24.83 -2.8 26.9 54 -11 12.3
07:55 1011 29.85 841 24.83 -2.4 27.7 53 -10.7 12.7
08:00 1011 29.85 841 24.83 -2 28.3 52 -10.6 13
08:05 1011 29.85 840 24.81 -1.6 29.1 51 -10.4 13.3
08:10 1011 29.85 840 24.81 -1.7 29 52 -10.4 13.4
08:15 1011 29.85 840 24.81 -1.5 29.2 51 -10.4 13.3
08:20 1011 29.85 840 24.81 -1.2 29.8 49 -10.5 13.1
08:25 1011 29.85 840 24.81 -1 30.1 51 -10.1 13.9
08:30 1011 29.85 840 24.81 -1.3 29.7 52 -9.9 14.3
08:35 1011 29.85 840 24.81 -1.5 29.3 52 -10 14
08:40 1011 29.85 840 24.81 -1.5 29.3 52 -10.1 13.7
08:45 1010 29.83 840 24.81 -1.3 29.7 52 -10 14
08:50 1010 29.83 839 24.78 -0.9 30.4 50 -10.1 13.9
08:55 1010 29.83 839 24.78 -0.4 31.3 48 -10.2 13.7
09:00 1010 29.83 839 24.78 0.1 32.1 46 -10.3 13.5
09:05 1010 29.83 839 24.78 0.5 32.9 44 -10.3 13.4
09:10 1010 29.83 839 24.78 0.8 33.5 44 -10.1 13.8
09:15 1010 29.83 839 24.78 1.1 33.9 43 -10.3 13.5
09:20 1010 29.83 839 24.78 1.3 34.4 42 -10.4 13.4
09:25 1010 29.83 839 24.78 1.6 34.8 40 -10.6 12.9
09:30 1010 29.83 839 24.78 1.8 35.2 41 -10.2 13.7
09:35 1010 29.83 839 24.78 1.7 35.1 42 -9.9 14.2
09:40 1010 29.83 839 24.78 1.3 34.4 46 -9 15.7
09:45 1010 29.83 839 24.78 -0.3 31.4 52 -9.2 15.5
09:50 1010 29.83 839 24.78 -1.4 29.6 56 -9 15.9
09:55 1010 29.83 839 24.78 -1.9 28.6 57 -9.4 15.1
10:00 1010 29.83 839 24.78 -1.5 29.3 55 -9.5 14.9
10:05 1010 29.83 839 24.78 -1.3 29.6 55 -9.3 15.2
10:10 1010 29.83 839 24.78 -1.2 29.8 54 -9.3 15.3
10:15 1010 29.83 839 24.78 -1 30.1 53 -9.5 14.8
10:20 1010 29.83 839 24.78 -1 30.3 52 -9.6 14.8
10:25 1010 29.83 839 24.78 -0.9 30.4 51 -9.7 14.5
10:30 1010 29.83 839 24.78 -0.9 30.4 51 -9.9 14.1
10:35 1009 29.8 839 24.78 -0.8 30.5 52 -9.4 15
10:40 1009 29.8 839 24.78 -0.7 30.7 51 -9.6 14.7
10:45 1009 29.8 838 24.75 -0.6 31 50 -9.7 14.6
10:50 1009 29.8 838 24.75 0 32 48 -9.7 14.6
10:55 1009 29.8 838 24.75 -0.2 31.6 49 -9.6 14.7
11:00 1009 29.8 838 24.75 0 32 54 -8.3 17.1
11:05 1009 29.8 838 24.75 -0.6 31 52 -9.4 15.1
11:10 1009 29.8 838 24.75 -0.3 31.4 53 -8.8 16.1
11:15 1009 29.8 838 24.75 -0 31.9 52 -8.9 16
11:20 1009 29.8 838 24.75 0.6 33.2 50 -8.6 16.5
11:25 1009 29.8 838 24.75 1 33.9 50 -8.3 17
11:30 1009 29.8 838 24.75 1.2 34.1 48 -8.5 16.6
11:35 1009 29.8 838 24.75 1.9 35.5 47 -8.2 17.2
11:40 1009 29.8 838 24.75 2 35.6 47 -8.1 17.3
11:45 1009 29.8 838 24.75 1.7 35 48 -8.1 17.4
11:50 1009 29.8 838 24.75 1.7 35.1 47 -8.3 17
11:55 1009 29.8 838 24.75 1.8 35.3 48 -8.2 17.3
12:00 1009 29.8 838 24.75 1.8 35.2 44 -9.3 15.3
12:05 1008 29.77 838 24.75 1.8 35.2 42 -9.7 14.6
12:10 1008 29.77 838 24.75 1.8 35.3 43 -9.5 14.8
12:15 1008 29.77 838 24.75 2.1 35.7 42 -9.6 14.7
12:20 1008 29.77 838 24.75 2.4 36.4 40 -9.8 14.3
12:25 1008 29.77 838 24.75 3 37.3 41 -9.2 15.5
12:30 1008 29.77 838 24.75 3 37.3 40 -9.2 15.4
12:35 1008 29.77 838 24.75 3.4 38.2 40 -8.9 16
12:40 1008 29.77 838 24.75 3.4 38 40 -9 15.8
12:45 1008 29.77 838 24.75 3 37.5 42 -8.8 16.2
12:50 1008 29.77 838 24.75 2.5 36.4 44 -8.7 16.3
12:55 1008 29.77 838 24.75 2.3 36.1 45 -8.4 16.9
13:00 1008 29.77 838 24.75 2 35.7 44 -8.9 16
13:05 1009 29.8 838 24.75 1.9 35.5 46 -8.5 16.7
13:10 1009 29.8 838 24.75 2 35.7 44 -9 15.7
13:15 1009 29.8 838 24.75 2.1 35.7 45 -8.6 16.6
13:20 1009 29.8 838 24.75 1.8 35.3 46 -8.6 16.5
13:25 1009 29.8 838 24.75 2.3 36.1 45 -8.6 16.5
13:30 1009 29.8 838 24.75 2.4 36.4 44 -8.7 16.3
13:35 1009 29.8 838 24.75 2.4 36.3 44 -8.7 16.4
13:40 1009 29.8 838 24.75 2.3 36.2 44 -8.7 16.4
13:45 1009 29.8 838 24.75 2.1 35.8 46 -8.4 16.9
13:50 1009 29.8 838 24.75 2 35.5 46 -8.5 16.6
13:55 1009 29.8 838 24.75 1.6 34.8 48 -8.2 17.2
14:00 1009 29.8 838 24.75 1.7 35.1 48 -8.2 17.3
14:05 1009 29.8 838 24.75 2.1 35.8 46 -8.2 17.2
14:10 1009 29.8 838 24.75 1.5 34.6 51 -7.6 18.3
14:15 1009 29.8 838 24.75 1.2 34.1 52 -7.5 18.4
14:20 1009 29.8 838 24.75 1.4 34.6 52 -7.5 18.5
14:25 1009 29.8 838 24.75 1.5 34.7 52 -7.2 19
14:30 1009 29.8 838 24.75 1.6 34.9 53 -6.9 19.5
14:35 1009 29.8 838 24.75 2.1 35.8 53 -6.6 20.2
14:40 1009 29.8 838 24.75 2.6 36.7 54 -5.8 21.6
14:45 1009 29.8 838 24.75 2.4 36.4 59 -4.8 23.4
14:50 1009 29.8 838 24.75 2.3 36.1 59 -5 23.1
14:55 1009 29.8 838 24.75 2.3 36.1 62 -4.4 24.2
15:00 1009 29.8 838 24.75 2.3 36.1 63 -4 24.8
15:05 1009 29.8 838 24.75 2.5 36.4 67 -3 26.6
15:10 1009 29.8 838 24.75 2.5 36.4 74 -1.7 28.9
15:15 1009 29.8 838 24.75 2.3 36.2 76 -1.5 29.2
15:20 1009 29.8 838 24.75 1.5 34.7 79 -1.7 28.9
15:25 1009 29.8 838 24.75 1 33.8 80 -2 28.3
15:30 1009 29.8 838 24.75 0.8 33.5 77 -2.7 27.1
15:35 1008 29.77 838 24.75 0.9 33.6 73 -3.4 25.8
15:40 1008 29.77 838 24.75 1.2 34.2 73 -3.1 26.5
15:45 1008 29.77 837 24.72 0.9 33.6 74 -3.3 26.1
15:50 1008 29.77 837 24.72 0.8 33.5 71 -3.9 25
15:55 1008 29.77 837 24.72 1 33.8 72 -3.4 25.8
16:00 1008 29.77 837 24.72 1 33.9 73 -3.3 26
16:05 1008 29.77 837 24.72 1.2 34.1 74 -2.9 26.7
16:10 1008 29.77 837 24.72 1.3 34.4 76 -2.3 27.8
16:15 1008 29.77 837 24.72 1.5 34.8 79 -1.8 28.8
16:20 1008 29.77 837 24.72 1.9 35.5 77 -1.7 29
16:25 1008 29.77 837 24.72 2.2 35.9 77 -1.4 29.4
16:30 1008 29.77 837 24.72 2.5 36.5 77 -1.2 29.9
16:35 1008 29.77 837 24.72 2.8 37.1 76 -1 30.1
16:40 1008 29.77 837 24.72 3.1 37.6 75 -0.9 30.3
16:45 1008 29.77 837 24.72 3.6 38.4 73 -0.9 30.3
16:50 1008 29.77 837 24.72 4 39.1 70 -1 30.2
16:55 1008 29.77 837 24.72 4.4 39.9 68 -1 30.3
17:00 1008 29.77 837 24.72 5.1 41.1 63 -1.5 29.4
17:05 1008 29.77 837 24.72 5.7 42.3 60 -1.4 29.4
17:10 1008 29.77 837 24.72 6.2 43.2 59 -1.2 29.8
17:15 1008 29.77 837 24.72 6.3 43.3 60 -0.9 30.3
17:20 1008 29.77 837 24.72 6.3 43.4 61 -0.7 30.8
17:25 1008 29.77 837 24.72 6.6 43.9 57 -1.3 29.7
17:30 1008 29.77 837 24.72 6.8 44.3 54 -1.9 28.5
17:35 1008 29.77 837 24.72 7.3 45.2 51 -2 28.4
17:40 1008 29.77 837 24.72 7.1 44.7 54 -1.6 29.1
17:45 1008 29.77 837 24.72 6.6 43.9 55 -1.7 28.9
17:50 1008 29.77 837 24.72 6.5 43.8 55 -1.8 28.7
17:55 1008 29.77 837 24.72 6.4 43.5 55 -2 28.5
18:00 1008 29.77 837 24.72 6.1 43 56 -2 28.5
18:05 1008 29.77 837 24.72 6.2 43.2 55 -2.1 28.2
18:10 1008 29.77 837 24.72 6.3 43.3 56 -1.9 28.6
18:15 1008 29.77 837 24.72 6.3 43.3 56 -1.8 28.7
18:20 1008 29.77 837 24.72 6.2 43.2 62 -0.6 31
18:25 1008 29.77 837 24.72 4.8 40.7 72 0.1 32.3
18:30 1008 29.77 837 24.72 3.4 38.1 81 0.4 32.6
18:35 1008 29.77 837 24.72 2.6 36.7 85 0.3 32.5
18:40 1008 29.77 837 24.72 2.6 36.6 85 0.3 32.6
18:45 1008 29.77 837 24.72 2.5 36.4 87 0.5 32.9
18:50 1008 29.77 837 24.72 2.1 35.7 89 0.5 32.8
18:55 1008 29.77 838 24.75 2 35.6 90 0.5 32.9
19:00 1008 29.77 838 24.75 2.1 35.8 89 0.6 33
19:05 1008 29.77 838 24.75 2.2 35.9 89 0.6 33.1
19:10 1008 29.77 838 24.75 2.2 35.9 89 0.6 33.1
19:15 1008 29.77 837 24.72 2.1 35.7 90 0.5 32.9
19:20 1008 29.77 838 24.75 1.7 35.1 91 0.4 32.7
19:25 1008 29.77 838 24.75 1.6 34.8 92 0.3 32.6
19:30 1008 29.77 838 24.75 1.5 34.7 92 0.3 32.5
19:35 1008 29.77 838 24.75 1.4 34.6 92 0.2 32.4
19:40 1008 29.77 838 24.75 1.5 34.6 91 0.2 32.3
19:45 1009 29.8 838 24.75 1.7 35 90 0.2 32.4
19:50 1009 29.8 838 24.75 1.7 35.1 90 0.2 32.4
19:55 1009 29.8 838 24.75 1.6 34.9 90 0.1 32.3
20:00 1009 29.8 838 24.75 1.6 35 89 0.1 32.1
20:05 1009 29.8 838 24.75 1.6 35 89 0.1 32.1
20:10 1009 29.8 838 24.75 1.6 34.9 89 0 32.1
20:15 1009 29.8 838 24.75 1.6 35 89 0.1 32.1
20:20 1009 29.8 838 24.75 1.5 34.7 90 0.1 32.1
20:25 1009 29.8 838 24.75 1.3 34.4 91 -0 31.9
20:30 1009 29.8 838 24.75 1.2 34.2 91 -0.1 31.8
20:35 1009 29.8 838 24.75 1.2 34.1 91 -0.1 31.8
20:40 1009 29.8 838 24.75 1.2 34.2 90 -0.2 31.7
20:45 1009 29.8 838 24.75 1.1 34 91 -0.1 31.7
20:50 1009 29.8 838 24.75 1 33.8 91 -0.2 31.6
20:55 1009 29.8 838 24.75 1.1 34 91 -0.3 31.5
21:00 1009 29.8 838 24.75 1.2 34.1 90 -0.3 31.5
21:05 1009 29.8 838 24.75 1.3 34.3 89 -0.2 31.6
21:10 1009 29.8 838 24.75 1.4 34.5 88 -0.4 31.3
21:15 1009 29.8 838 24.75 1.3 34.4 88 -0.4 31.3
21:20 1008 29.77 838 24.75 1.3 34.3 87 -0.6 30.9
21:25 1008 29.77 838 24.75 1.5 34.7 86 -0.6 31
21:30 1009 29.8 838 24.75 1.7 35 86 -0.5 31.1
21:35 1009 29.8 838 24.75 1.6 34.9 86 -0.4 31.3
21:40 1008 29.77 838 24.75 1.6 35 86 -0.4 31.3
21:45 1008 29.77 838 24.75 1.5 34.8 87 -0.4 31.3
21:50 1008 29.77 838 24.75 1.5 34.8 87 -0.4 31.3
21:55 1008 29.77 838 24.75 1.5 34.8 87 -0.4 31.3
22:00 1009 29.8 838 24.75 1.5 34.7 87 -0.4 31.3
22:05 1009 29.8 838 24.75 1.6 34.8 87 -0.4 31.2
22:10 1009 29.8 838 24.75 1.7 35.1 86 -0.4 31.3
22:15 1009 29.8 838 24.75 1.9 35.4 85 -0.4 31.3
22:20 1009 29.8 838 24.75 1.7 35.1 86 -0.3 31.4
22:25 1009 29.8 838 24.75 1.4 34.5 88 -0.4 31.2
22:30 1009 29.8 838 24.75 1.3 34.3 88 -0.5 31
22:35 1009 29.8 839 24.78 1.3 34.3 87 -0.6 31
22:40 1010 29.83 839 24.78 1.2 34.1 89 -0.5 31.1
22:45 1010 29.83 839 24.78 0.9 33.6 90 -0.5 31.1
22:50 1010 29.83 839 24.78 1 33.7 91 -0.4 31.3
22:55 1010 29.83 839 24.78 0.9 33.6 91 -0.4 31.3
23:00 1010 29.83 839 24.78 0.7 33.3 92 -0.4 31.2
23:05 1010 29.83 839 24.78 0.6 33 93 -0.5 31.2
23:10 1010 29.83 839 24.78 0.5 32.9 93 -0.5 31.1
23:15 1010 29.83 840 24.81 0.5 32.9 94 -0.4 31.3
23:20 1011 29.85 840 24.81 0.5 32.9 94 -0.4 31.2
23:25 1011 29.85 840 24.81 0.5 32.8 94 -0.4 31.2
23:30 1011 29.85 840 24.81 0.4 32.8 94 -0.4 31.2
23:35 1011 29.85 840 24.81 0.3 32.5 94 -0.5 31.1
23:40 1011 29.85 840 24.81 0.2 32.3 95 -0.5 31.1
23:45 1010 29.83 839 24.78 0.2 32.3 95 -0.5 31.1
23:50 1009 29.8 839 24.78 0.2 32.3 96 -0.5 31.2
23:55 1009 29.8 838 24.75 0.1 32.2 96 -0.5 31.2
24:00 1009 29.8 838 24.75 0.1 32.2 96 -0.4 31.2